North Dighton, MA

41° 51' 30"N, 71° 08' 44"W, Elevation 95 ft.
Eastern Time

Hourly observations for the last 72 hours

Date Time Temperature (°F) Humi-
dity

(%)
Wind
(mph)
Pressure Rain (in) Sun
(W/m2)
UV ET
(in)
Air Dew 6 Hour 1 Hr 3 Hr 6 Hr Day
Alt
(in)
Sea
Level

(mb)
Max Min
21 19:00 25.8 4.2 30.2 25.7 39 SSW 2 G 5 30.35 1027.9 0.00 0 0.0 0.066
21 18:00 26.9 0.3 31 S 2 G 3 30.36 1028.0 0.00 0 0.0 0.065
21 17:00 29.4 -1.3 26 WSW 1 G 4 30.35 1027.9 0.00 19 0.0 0.063
21 16:00 30.1 0.1 27 SW 5 G 9 30.36 1028.2 0.00 91 0.0 0.060
21 15:00 29.5 3.2 32 SW 3 G 4 30.37 1028.4 0.00 142 0.7 0.053
21 14:00 29.2 7.3 39 SSE 2 G 7 30.38 1028.9 0.00 563 1.4 0.045
21 13:00 27.8 7.7 28.2 14.9 42 N 9 G 12 30.41 1029.7 0.00 649 1.9 0.036
21 12:00 25.9 7.9 46 N 6 G 14 30.44 1030.8 0.00 679 2.1 0.027
21 11:00 25.0 9.4 51 NE 8 G 13 30.46 1031.4 0.00 647 1.9 0.019
21 10:00 22.4 7.4 52 N 10 G 16 30.46 1031.5 0.00 554 1.3 0.013
21 09:00 19.8 5.4 53 N 9 G 14 30.45 1031.3 0.00 411 0.7 0.009
21 08:00 16.6 2.8 54 NNW 9 G 14 30.45 1031.2 0.00 232 0.0 0.007
21 07:00 15.0 1.7 21.2 14.8 55 N 11 G 20 30.43 1030.4 0.00 30 0.0 0.006
21 06:00 15.4 2.9 57 N 7 G 15 30.42 1030.0 0.00 0 0.0 0.005
21 05:00 16.3 4.5 59 N 5 G 13 30.41 1029.8 0.00 0 0.0 0.004
21 04:00 17.4 5.5 59 N 8 G 16 30.41 1029.9 0.00 0 0.0 0.003
21 03:00 18.6 6.6 59 NNW 8 G 13 30.41 1029.9 0.00 0 0.0 0.002
21 02:00 20.2 8.5 60 N 8 G 16 30.42 1030.0 0.00 0 0.0 0.001
21 01:00 21.2 9.1 28.0 21.1 59 NNW 5 G 7 30.41 1029.8 0.00 0 0.0 0.000
21 00:00 22.5 9.6 57 NW 6 G 13 30.41 1029.7 0.00 0 0.0 0.077
20 23:00 23.9 10.1 55 NNW 9 G 14 30.40 1029.4 0.00 0 0.0 0.075
20 22:00 24.4 9.7 53 NW 5 G 9 30.40 1029.4 0.00 0 0.0 0.074
20 21:00 24.7 12.0 58 NNW 2 G 4 30.39 1029.2 0.00 0 0.0 0.073
20 20:00 26.8 12.0 53 WNW 7 G 10 30.38 1029.0 0.00 0 0.0 0.072
20 19:00 27.7 11.9 33.8 27.5 51 N 6 G 9 30.38 1028.6 0.00 0 0.0 0.071
20 18:00 29.3 12.0 48 NW 7 G 10 30.36 1028.1 0.00 0 0.0 0.070
20 17:00 30.7 11.9 45 N 8 G 17 30.33 1027.3 0.00 28 0.0 0.067
20 16:00 32.0 12.5 44 N 10 G 13 30.32 1026.9 0.00 95 0.0 0.063
20 15:00 32.7 12.1 42 NW 11 G 17 30.32 1026.9 0.00 220 0.6 0.057
20 14:00 32.7 9.9 38 W 6 G 13 30.33 1027.0 0.00 271 1.0 0.049
20 13:00 33.0 11.9 33.4 20.8 41 WNW 11 G 15 30.34 1027.5 0.00 649 1.9 0.039
20 12:00 30.9 11.5 44 NNW 7 G 13 30.38 1028.7 0.00 508 2.0 0.030
20 11:00 31.0 11.6 44 NW 11 G 17 30.41 1029.9 0.00 677 2.1 0.021
20 10:00 29.9 13.1 49 WNW 9 G 12 30.43 1030.4 0.00 545 1.5 0.014
20 09:00 27.2 13.6 56 N 7 G 12 30.44 1030.9 0.00 373 0.8 0.010
20 08:00 25.1 14.3 63 WNW 5 G 10 30.44 1030.8 0.00 230 0.0 0.009
20 07:00 20.8 15.3 27.4 20.3 79 W 1 G 2 30.42 1030.1 0.00 25 0.0 0.009
20 06:00 21.4 14.7 75 W 0 G 3 30.39 1029.1 0.00 0 0.0 0.008
20 05:00 23.1 12.0 62 W 3 G 6 30.38 1028.8 0.00 0 0.0 0.007
20 04:00 24.4 10.9 56 W 3 G 7 30.36 1028.0 0.00 0 0.0 0.006
20 03:00 25.5 12.0 56 NW 5 G 10 30.33 1027.2 0.00 0 0.0 0.004
20 02:00 26.6 12.2 54 WNW 10 G 16 30.33 1027.1 0.00 0 0.0 0.002
20 01:00 27.3 12.8 34.1 27.3 54 W 9 G 16 30.32 1026.9 0.00 0 0.0 0.000
20 00:00 28.5 13.5 53 WNW 9 G 15 30.32 1026.7 0.01 0 0.0 0.109
19 23:00 29.4 13.5 51 W 9 G 15 30.31 1026.3 0.01 0 0.0 0.107
19 22:00 30.4 13.5 49 W 8 G 14 30.30 1026.0 0.01 0 0.0 0.105
19 21:00 31.4 14.0 48 W 8 G 13 30.29 1025.7 0.01 0 0.0 0.103
19 20:00 32.8 13.8 45 W 3 G 10 30.26 1024.7 0.01 0 0.0 0.101
19 19:00 34.1 15.0 44.3 33.5 45 N 7 G 15 30.23 1023.9 0.01 0 0.0 0.099
19 18:00 35.9 15.0 42 N 7 G 12 30.20 1022.9 0.01 0 0.0 0.096
19 17:00 37.8 13.8 37 NNW 11 G 16 30.18 1021.9 0.01 16 0.0 0.091
19 16:00 40.2 17.2 39 NW 11 G 27 30.15 1021.1 0.01 81 0.0 0.084
19 15:00 42.3 19.7 40 NW 18 G 25 30.12 1020.0 0.01 151 0.7 0.072
19 14:00 42.9 24.1 47 NNW 10 G 23 30.10 1019.2 0.01 578 1.6 0.058
19 13:00 44.2 26.7 45.3 37.9 50 WNW 13 G 26 30.08 1018.7 0.01 677 2.2 0.043
19 12:00 44.5 26.5 49 NW 17 G 31 30.08 1018.6 0.01 689 2.4 0.028
19 11:00 42.6 26.2 52 WNW 11 G 22 30.09 1019.1 0.01 659 2.2 0.016
19 10:00 41.9 27.3 56 NW 16 G 26 30.09 1019.1 0.01 543 1.6 0.006
19 09:00 39.6 29.6 67 NW 6 G 12 30.09 1018.9 0.01 415 0.8 0.003
19 08:00 38.3 31.1 75 W 4 G 9 30.07 1018.2 0.01 77 0.0 0.002
19 07:00 37.9 31.7 38.8 35.5 78 W 4 G 13 30.04 1017.2 0.01 0.01 0 0.0 0.001
19 06:00 38.2 32.6 80 WNW 9 G 15 30.00 1015.9 0.01 0 0.0 0.000
19 05:00 38.4 35.4 89 WNW 11 G 21 29.99 1015.5 0.01 0 0.0 0.000
19 04:00 38.7 37.7 96 WNW 7 G 14 29.95 1014.3 0.01 0.01 0 0.0 0.000
19 03:00 37.1 36.3 97 WNW 5 G 10 29.92 1013.4 0.01 0.01 0 0.0 0.000
19 02:00 36.1 35.1 96 SW 0 G 2 29.92 1013.1 0.00 0 0.0 0.000
19 01:00 36.1 35.1 37.4 36.0 96 WSW 0 G 2 29.92 1013.3 0.00 0 0.0 0.000
19 00:00 36.2 35.2 96 SSW 1 G 3 29.91 1013.0 0.10 0 0.0 0.019
18 23:00 36.2 35.2 96 W 1 G 2 29.91 1013.0 0.10 0 0.0 0.019
18 22:00 36.2 35.2 96 NW 2 G 5 29.93 1013.4 0.10 0 0.0 0.019
18 21:00 36.7 35.7 96 NW 3 G 8 29.93 1013.7 0.10 0 0.0 0.019
18 20:00 36.8 35.5 95 NNW 4 G 5 29.95 1014.4 0.10 0 0.0 0.019

Data generated by WxSolution Version 1.9.1.8, Build 2020.02.16.